Time;durP1;ratioP1;P1;durP2;ratioP2;P2;SDS_P1;SDS_P2;PMS_P1;PMS_P2;Temp;Humidity;BMP_temperature;BMP_pressure;BME280_temperature;BME280_humidity;BME280_pressure;Samples;Min_cycle;Max_cycle;Signal;HPM_P1;HPM_P2
2023/03/05 00:03:06;;;;;;;11.37;3.67;;;6.10;1.00;;;;;;5046141;23;20507;-80
2023/03/05 00:05:36;;;;;;;10.90;2.50;;;6.10;1.00;;;;;;5035453;28;20208;-78
2023/03/05 00:08:03;;;;;;;7.60;2.80;;;6.10;1.00;;;;;;5035556;28;20458;-79
2023/03/05 00:10:30;;;;;;;11.20;3.43;;;6.10;1.00;;;;;;5034626;28;20486;-79
2023/03/05 00:12:57;;;;;;;4.17;2.43;;;6.00;36.10;;;;;;5035443;28;20437;-80
2023/03/05 00:15:25;;;;;;;9.60;2.70;;;6.10;54.80;;;;;;5032954;28;20806;-79
2023/03/05 00:17:52;;;;;;;10.13;3.20;;;5.90;99.90;;;;;;5027784;28;20464;-80
2023/03/05 00:20:18;;;;;;;9.10;2.67;;;5.90;99.90;;;;;;5033910;28;20972;-80
2023/03/05 00:22:45;;;;;;;6.50;2.30;;;5.90;1.00;;;;;;5035337;28;21021;-80
2023/03/05 00:25:12;;;;;;;4.63;2.20;;;5.70;1.00;;;;;;5035063;28;20455;-81
2023/03/05 00:27:39;;;;;;;6.23;2.50;;;5.70;99.90;;;;;;5035506;28;20526;-81
2023/03/05 00:30:07;;;;;;;12.50;2.90;;;5.70;99.90;;;;;;5035045;28;20906;-77
2023/03/05 00:32:36;;;;;;;5.03;2.77;;;5.70;99.90;;;;;;5035071;28;20471;-78
2023/03/05 00:35:03;;;;;;;7.50;2.20;;;5.70;99.90;;;;;;5034976;28;20451;-80
2023/03/05 00:37:29;;;;;;;4.30;1.90;;;5.60;99.90;;;;;;5035171;28;20535;-81
2023/03/05 00:39:57;;;;;;;12.57;2.70;;;5.50;99.90;;;;;;5034598;28;20477;-80
2023/03/05 00:42:24;;;;;;;9.67;2.77;;;5.50;1.00;;;;;;5035039;28;20574;-79
2023/03/05 00:44:51;;;;;;;9.00;2.47;;;5.60;1.00;;;;;;5034994;28;20969;-82
2023/03/05 00:47:18;;;;;;;5.70;2.00;;;5.60;1.00;;;;;;5043716;28;20526;-83
2023/03/05 00:49:46;;;;;;;5.20;2.10;;;5.60;1.00;;;;;;5052237;28;20453;-79
2023/03/05 00:52:13;;;;;;;5.47;2.37;;;5.60;1.00;;;;;;5051961;28;20474;-81
2023/03/05 00:54:39;;;;;;;4.00;2.00;;;5.60;1.00;;;;;;5051839;28;20511;-82
2023/03/05 00:57:06;;;;;;;4.90;2.00;;;5.60;1.00;;;;;;5053113;28;20515;-83
2023/03/05 00:59:33;;;;;;;10.47;3.30;;;5.60;99.90;;;;;;5052374;28;20453;-82
2023/03/05 01:02:00;;;;;;;6.60;2.33;;;5.60;99.90;;;;;;5053073;28;20534;-82
2023/03/05 01:04:27;;;;;;;5.60;2.00;;;5.60;99.90;;;;;;5052376;28;20455;-81
2023/03/05 01:06:55;;;;;;;7.27;2.23;;;5.60;32.60;;;;;;5051649;28;20464;-80
2023/03/05 01:09:24;;;;;;;6.70;2.17;;;5.60;99.90;;;;;;5049034;28;20537;-79
2023/03/05 01:11:50;;;;;;;8.27;2.23;;;5.60;99.90;;;;;;5037754;28;20491;-80
2023/03/05 01:14:17;;;;;;;11.10;2.13;;;5.50;99.90;;;;;;5037238;28;20460;-81
2023/03/05 01:16:44;;;;;;;11.47;2.37;;;5.40;99.90;;;;;;5038265;28;20530;-80
2023/03/05 01:19:11;;;;;;;6.00;1.77;;;5.50;99.90;;;;;;5037766;28;20452;-81
2023/03/05 01:21:38;;;;;;;3.13;1.50;;;5.50;99.90;;;;;;5037359;28;20476;-80
2023/03/05 01:24:07;;;;;;;7.07;1.80;;;5.50;30.00;;;;;;5036898;28;20834;-80
2023/03/05 01:26:34;;;;;;;9.80;2.20;;;5.40;97.70;;;;;;5037101;28;20425;-81
2023/03/05 01:29:02;;;;;;;4.03;1.93;;;5.40;99.90;;;;;;5036846;28;20464;-81
2023/03/05 01:31:29;;;;;;;9.00;2.00;;;5.30;99.90;;;;;;5037618;28;20498;-80
2023/03/05 01:33:56;;;;;;;8.97;2.50;;;5.30;99.90;;;;;;5038050;28;20532;-80
2023/03/05 01:36:23;;;;;;;9.50;2.80;;;5.40;99.90;;;;;;5037872;28;20451;-79
2023/03/05 01:38:51;;;;;;;9.03;1.90;;;5.30;99.90;;;;;;5037617;28;20466;-80
2023/03/05 01:41:20;;;;;;;7.23;2.27;;;5.30;1.00;;;;;;5037545;28;20547;-81
2023/03/05 01:43:48;;;;;;;8.17;2.10;;;5.20;1.00;;;;;;5036729;28;20466;-81
2023/03/05 01:46:37;;;;;;;8.70;2.37;;;5.10;99.90;;;;;;5037158;28;20539;-80
2023/03/05 01:49:12;;;;;;;6.73;2.23;;;5.10;1.00;;;;;;5035875;28;20531;-81
2023/03/05 01:51:45;;;;;;;8.70;2.80;;;5.10;99.90;;;;;;5036868;28;20513;-83
2023/03/05 01:54:14;;;;;;;8.57;2.70;;;5.10;99.90;;;;;;5036582;28;20456;-82
2023/03/05 01:56:45;;;;;;;9.70;2.37;;;5.20;95.20;;;;;;5036413;28;20425;-81
2023/03/05 01:59:13;;;;;;;6.53;2.50;;;5.20;28.90;;;;;;5035154;28;20544;-80
2023/03/05 02:01:43;;;;;;;4.80;1.87;;;5.20;99.90;;;;;;5036803;28;20457;-82
2023/03/05 02:04:14;;;;;;;5.03;1.73;;;5.20;99.90;;;;;;5035991;28;20461;-80
2023/03/05 02:06:42;;;;;;;6.10;2.00;;;5.20;99.90;;;;;;5036786;28;20456;-83
2023/03/05 02:09:09;;;;;;;6.67;2.30;;;5.20;1.00;;;;;;5036784;28;20459;-79
2023/03/05 02:11:36;;;;;;;7.33;2.47;;;5.20;1.00;;;;;;5036265;28;20583;-81
2023/03/05 02:14:05;;;;;;;10.30;2.20;;;5.20;1.00;;;;;;5036042;28;20456;-82
2023/03/05 02:16:35;;;;;;;5.83;2.33;;;5.20;1.00;;;;;;5036610;28;20450;-80
2023/03/05 02:19:02;;;;;;;10.40;3.20;;;5.20;99.90;;;;;;5036708;28;20571;-83
2023/03/05 02:21:37;;;;;;;4.90;2.60;;;5.20;99.90;;;;;;5036855;28;20486;-82
2023/03/05 02:24:05;;;;;;;9.80;2.20;;;5.10;1.00;;;;;;5036219;28;20436;-82
2023/03/05 02:26:32;;;;;;;12.80;2.60;;;5.10;99.90;;;;;;5038959;28;20532;-79
2023/03/05 02:29:01;;;;;;;7.13;1.90;;;5.10;1.00;;;;;;5043324;28;20541;-80
2023/03/05 02:31:28;;;;;;;8.70;2.43;;;5.10;1.00;;;;;;5044913;28;21089;-79
2023/03/05 02:33:55;;;;;;;7.33;2.30;;;5.10;1.00;;;;;;5042777;28;20513;-79
2023/03/05 02:36:23;;;;;;;7.10;2.23;;;5.10;99.90;;;;;;5042859;28;20430;-78
2023/03/05 02:38:52;;;;;;;6.20;1.63;;;5.10;1.00;;;;;;5043359;28;20538;-79
2023/03/05 02:41:19;;;;;;;5.20;1.90;;;5.10;99.90;;;;;;5035279;28;20464;-80
2023/03/05 02:43:46;;;;;;;6.50;1.70;;;5.00;99.90;;;;;;5017736;28;20456;-80
2023/03/05 02:46:13;;;;;;;8.83;2.30;;;5.00;99.90;;;;;;5014893;28;20446;-80
2023/03/05 02:48:40;;;;;;;3.87;1.60;;;5.10;99.90;;;;;;5013996;28;21042;-80
2023/03/05 02:51:08;;;;;;;4.50;1.73;;;5.10;44.00;;;;;;5032774;28;20499;-80
2023/03/05 02:53:35;;;;;;;7.50;2.23;;;5.10;1.00;;;;;;5034751;28;20504;-80
2023/03/05 02:56:03;;;;;;;6.37;1.43;;;5.10;99.90;;;;;;5035138;28;20455;-81
2023/03/05 02:58:30;;;;;;;2.57;1.57;;;5.10;99.90;;;;;;5034221;28;20462;-81
2023/03/05 03:00:57;;;;;;;4.90;1.50;;;5.10;1.00;;;;;;5034775;28;20458;-79
2023/03/05 03:03:24;;;;;;;4.33;2.20;;;5.00;1.00;;;;;;5039611;28;20447;-80
2023/03/05 03:05:51;;;;;;;6.87;1.90;;;5.00;1.00;;;;;;5042727;28;20424;-80
2023/03/05 03:08:17;;;;;;;4.83;2.00;;;5.00;1.00;;;;;;5042671;28;20432;-83
2023/03/05 03:10:44;;;;;;;4.40;2.20;;;5.10;99.90;;;;;;5038042;28;20462;-81
2023/03/05 03:13:12;;;;;;;11.03;1.80;;;5.10;99.90;;;;;;5036107;28;20462;-82
2023/03/05 03:15:40;;;;;;;10.17;2.63;;;5.10;1.00;;;;;;5036741;28;20522;-82
2023/03/05 03:18:06;;;;;;;6.07;1.47;;;5.10;1.00;;;;;;5039119;28;20446;-81
2023/03/05 03:20:34;;;;;;;8.77;2.30;;;5.10;99.90;;;;;;5038901;28;21014;-82
2023/03/05 03:23:01;;;;;;;10.93;2.23;;;5.10;99.90;;;;;;5039415;28;20566;-82
2023/03/05 03:25:28;;;;;;;6.40;2.30;;;5.00;1.00;;;;;;5038913;28;20425;-81
2023/03/05 03:27:55;;;;;;;8.20;2.90;;;4.90;24.30;;;;;;5039166;28;20486;-82
2023/03/05 03:30:23;;;;;;;7.30;2.20;;;4.80;99.90;;;;;;5038776;28;20464;-81
2023/03/05 03:32:51;;;;;;;8.20;2.30;;;4.90;99.90;;;;;;5038899;28;20496;-81
2023/03/05 03:35:18;;;;;;;5.97;1.87;;;4.90;99.90;;;;;;5039154;28;20454;-81
2023/03/05 03:37:45;;;;;;;5.37;1.97;;;4.90;1.00;;;;;;5039380;28;20459;-80
2023/03/05 03:40:12;;;;;;;5.50;1.97;;;4.90;99.90;;;;;;5039402;28;20469;-81
2023/03/05 03:42:39;;;;;;;6.13;2.20;;;4.90;1.00;;;;;;5039544;28;21031;-79
2023/03/05 03:45:07;;;;;;;7.73;2.13;;;4.90;99.90;;;;;;5040332;28;20463;-80
2023/03/05 03:47:35;;;;;;;4.10;1.80;;;4.80;99.90;;;;;;5039813;28;20948;-80
2023/03/05 03:50:02;;;;;;;6.23;1.83;;;4.70;99.90;;;;;;5039223;28;20425;-82
2023/03/05 03:52:29;;;;;;;4.77;2.00;;;4.70;1.00;;;;;;5039046;28;20490;-80
2023/03/05 03:55:00;;;;;;;5.87;2.23;;;4.70;99.90;;;;;;5038960;28;20480;-80
2023/03/05 03:57:27;;;;;;;8.60;2.87;;;4.70;22.00;;;;;;5039302;28;20838;-82
2023/03/05 03:59:54;;;;;;;8.30;2.60;;;4.70;99.90;;;;;;5038545;28;20451;-80
2023/03/05 04:02:21;;;;;;;6.80;2.90;;;4.80;51.90;;;;;;5038803;28;20570;-79
2023/03/05 04:04:49;;;;;;;5.97;2.87;;;4.70;1.00;;;;;;5039061;28;20493;-81
2023/03/05 04:07:16;;;;;;;8.50;3.33;;;4.70;90.30;;;;;;5038172;28;20425;-80
2023/03/05 04:09:43;;;;;;;11.50;2.97;;;4.70;1.00;;;;;;5038448;28;20438;-81
2023/03/05 04:12:10;;;;;;;5.07;2.50;;;4.60;1.00;;;;;;5038742;28;20506;-79
2023/03/05 04:14:37;;;;;;;6.70;2.83;;;4.70;1.00;;;;;;5038669;28;20452;-81
2023/03/05 04:17:04;;;;;;;9.90;3.60;;;4.70;1.00;;;;;;5038365;28;20476;-81
2023/03/05 04:19:31;;;;;;;7.40;3.00;;;4.60;99.90;;;;;;5038564;28;20446;-81
2023/03/05 04:21:59;;;;;;;8.93;3.73;;;4.60;99.90;;;;;;5038492;28;20442;-80
2023/03/05 04:24:26;;;;;;;6.30;2.60;;;4.70;1.00;;;;;;5038420;28;20468;-80
2023/03/05 04:26:53;;;;;;;5.10;3.37;;;4.70;1.00;;;;;;5038289;28;20458;-80
2023/03/05 04:29:20;;;;;;;8.70;4.20;;;4.80;99.90;;;;;;5037912;28;20830;-78
2023/03/05 04:31:47;;;;;;;11.10;5.20;;;4.70;99.90;;;;;;5037677;28;20579;-80
2023/03/05 04:34:13;;;;;;;13.83;5.30;;;4.70;1.00;;;;;;5038106;28;20459;-80
2023/03/05 04:36:40;;;;;;;9.50;4.10;;;4.70;1.00;;;;;;5037833;28;20434;-81
2023/03/05 04:39:08;;;;;;;10.70;5.30;;;4.80;99.90;;;;;;5037378;28;20534;-79
2023/03/05 04:41:35;;;;;;;7.67;4.70;;;4.70;99.90;;;;;;5037941;28;20444;-79
2023/03/05 04:44:02;;;;;;;6.50;4.20;;;4.70;99.90;;;;;;5037834;28;20542;-80
2023/03/05 04:46:29;;;;;;;9.63;4.70;;;4.70;99.90;;;;;;5038499;28;20461;-81
2023/03/05 04:48:57;;;;;;;6.90;4.43;;;4.60;99.90;;;;;;5037965;28;20962;-79
2023/03/05 04:51:24;;;;;;;7.70;4.17;;;4.60;1.00;;;;;;5036645;28;20478;-80
2023/03/05 04:53:51;;;;;;;8.07;3.83;;;4.70;30.00;;;;;;5038137;28;20465;-80
2023/03/05 04:56:19;;;;;;;5.00;3.87;;;4.70;1.00;;;;;;5038984;28;20504;-79
2023/03/05 04:58:46;;;;;;;4.80;2.83;;;4.70;1.00;;;;;;5038495;28;20448;-81
2023/03/05 05:01:13;;;;;;;9.73;3.40;;;4.70;1.00;;;;;;5039913;28;20520;-80
2023/03/05 05:03:40;;;;;;;5.70;3.03;;;4.70;99.90;;;;;;5040174;28;20428;-81
2023/03/05 05:06:07;;;;;;;10.80;3.17;;;4.60;99.90;;;;;;5039593;28;20445;-80
2023/03/05 05:08:35;;;;;;;6.90;2.40;;;4.50;1.00;;;;;;5038855;28;20449;-80
2023/03/05 05:11:04;;;;;;;5.13;2.60;;;4.60;90.80;;;;;;5038865;28;20508;-79
2023/03/05 05:13:34;;;;;;;3.60;2.03;;;4.60;99.90;;;;;;5038514;28;20492;-81
2023/03/05 05:16:01;;;;;;;5.87;1.60;;;4.50;99.90;;;;;;5039177;28;20518;-81
2023/03/05 05:18:27;;;;;;;4.20;2.37;;;4.50;7.90;;;;;;5039082;28;20461;-79
2023/03/05 05:20:54;;;;;;;5.00;2.33;;;4.50;1.00;;;;;;5038865;28;20423;-79
2023/03/05 05:23:21;;;;;;;3.70;2.10;;;4.50;99.90;;;;;;5039051;28;20453;-79
2023/03/05 05:25:56;;;;;;;4.50;2.37;;;4.50;99.90;;;;;;5038622;28;20461;-79
2023/03/05 05:28:23;;;;;;;5.47;2.40;;;4.60;1.00;;;;;;5039155;28;20449;-80
2023/03/05 05:30:51;;;;;;;6.50;2.07;;;4.50;99.90;;;;;;5039085;28;20457;-80
2023/03/05 05:33:18;;;;;;;6.33;2.70;;;4.50;1.00;;;;;;5038316;28;20798;-80
2023/03/05 05:35:45;;;;;;;7.97;2.93;;;4.50;99.90;;;;;;5038718;28;20531;-80
2023/03/05 05:38:12;;;;;;;8.60;2.10;;;4.70;99.90;;;;;;5040087;28;20526;-81
2023/03/05 05:40:39;;;;;;;6.10;2.60;;;4.70;99.90;;;;;;5029002;28;20460;-80
2023/03/05 05:43:06;;;;;;;3.53;2.30;;;4.60;99.90;;;;;;5028665;28;20465;-79
2023/03/05 05:45:33;;;;;;;4.63;2.20;;;4.70;1.00;;;;;;5028657;28;20814;-80
2023/03/05 05:48:01;;;;;;;6.37;3.00;;;4.70;1.00;;;;;;5018261;28;20464;-80
2023/03/05 05:50:28;;;;;;;5.93;2.67;;;4.70;99.90;;;;;;5018759;28;20469;-80
2023/03/05 05:52:55;;;;;;;8.57;2.90;;;4.60;1.00;;;;;;5018013;28;20558;-81
2023/03/05 05:55:22;;;;;;;6.37;2.30;;;4.60;99.90;;;;;;5025844;28;20453;-78
2023/03/05 05:57:49;;;;;;;11.73;3.57;;;4.60;99.90;;;;;;5038186;28;20463;-81
2023/03/05 06:00:16;;;;;;;11.50;4.00;;;4.50;99.90;;;;;;5035709;28;20469;-81
2023/03/05 06:02:44;;;;;;;8.20;4.00;;;4.40;99.90;;;;;;5057484;23;20480;-85
2023/03/05 06:05:14;;;;;;;5.97;3.57;;;4.50;1.00;;;;;;5034146;28;20450;-85
2023/03/05 06:07:41;;;;;;;9.13;4.63;;;4.60;99.90;;;;;;5033549;28;20481;-85
2023/03/05 06:10:10;;;;;;;13.87;5.27;;;4.60;99.90;;;;;;5033036;28;20860;-83
2023/03/05 06:12:37;;;;;;;9.17;6.43;;;4.70;99.90;;;;;;5041781;28;20492;-84
2023/03/05 06:15:04;;;;;;;8.10;4.60;;;4.70;99.90;;;;;;5037411;28;20471;-85
2023/03/05 06:17:31;;;;;;;10.93;5.70;;;4.80;99.90;;;;;;5039746;28;20449;-85
2023/03/05 06:19:58;;;;;;;16.10;5.93;;;4.80;99.90;;;;;;5031267;28;20460;-85
2023/03/05 06:22:26;;;;;;;9.60;4.43;;;4.80;99.90;;;;;;5029268;28;21281;-85
2023/03/05 06:24:53;;;;;;;12.37;5.63;;;4.80;1.00;;;;;;5035393;28;20518;-85
2023/03/05 06:27:20;;;;;;;11.20;5.27;;;4.70;99.90;;;;;;5032893;28;20480;-85
2023/03/05 06:29:47;;;;;;;14.70;5.37;;;4.70;99.90;;;;;;5038948;28;20466;-85
2023/03/05 06:32:14;;;;;;;13.73;6.00;;;4.70;99.90;;;;;;5040041;28;20496;-85
2023/03/05 06:34:40;;;;;;;9.47;5.20;;;4.70;99.90;;;;;;5038766;28;20481;-85
2023/03/05 06:37:07;;;;;;;11.77;5.93;;;4.70;99.90;;;;;;5039090;28;20936;-86
2023/03/05 06:39:35;;;;;;;8.97;5.40;;;4.70;99.90;;;;;;5038374;28;20485;-86
2023/03/05 06:42:02;;;;;;;12.77;5.70;;;4.70;1.00;;;;;;5038592;28;20481;-86
2023/03/05 06:44:29;;;;;;;18.40;6.87;;;4.80;1.00;;;;;;5039332;28;20450;-87
2023/03/05 06:46:56;;;;;;;8.87;5.00;;;4.80;1.00;;;;;;5039841;28;20450;-86
2023/03/05 06:49:23;;;;;;;13.13;5.70;;;4.90;1.00;;;;;;5036984;28;20876;-89
2023/03/05 06:51:50;;;;;;;11.33;5.80;;;4.90;1.00;;;;;;5036020;28;20470;-87
2023/03/05 06:54:17;;;;;;;12.43;5.47;;;4.90;99.90;;;;;;5037718;28;20495;-85
2023/03/05 06:56:46;;;;;;;12.80;4.80;;;4.90;99.90;;;;;;5038119;28;20461;-87
2023/03/05 06:59:15;;;;;;;10.23;5.50;;;4.90;99.90;;;;;;5037661;28;20461;-84
2023/03/05 07:01:42;;;;;;;15.70;4.50;;;5.00;99.90;;;;;;5036562;28;20521;-82
2023/03/05 07:04:08;;;;;;;13.83;4.40;;;5.00;99.90;;;;;;5036631;28;20455;-80
2023/03/05 07:06:39;;;;;;;16.20;8.80;;;4.90;1.00;;;;;;5036763;28;20520;-82
2023/03/05 07:09:07;;;;;;;10.87;4.87;;;5.00;1.00;;;;;;5039747;28;20458;-82
2023/03/05 07:11:34;;;;;;;6.43;4.00;;;5.00;99.90;;;;;;5037177;28;20973;-82
2023/03/05 07:14:02;;;;;;;7.40;4.80;;;5.10;99.90;;;;;;5036806;28;20498;-82
2023/03/05 07:16:32;;;;;;;11.80;4.07;;;5.20;99.90;;;;;;5016643;28;20448;-85
2023/03/05 07:19:01;;;;;;;11.50;3.60;;;5.20;99.90;;;;;;5031131;28;20461;-85
2023/03/05 07:21:29;;;;;;;10.33;4.33;;;5.20;99.90;;;;;;5036949;28;20459;-84
2023/03/05 07:23:58;;;;;;;8.73;3.40;;;5.20;99.90;;;;;;5035946;28;20456;-82
2023/03/05 07:26:26;;;;;;;12.70;4.23;;;5.20;99.90;;;;;;5036122;28;20451;-84
2023/03/05 07:28:53;;;;;;;8.83;4.27;;;5.30;99.90;;;;;;5036170;28;20451;-85
2023/03/05 07:31:25;;;;;;;5.97;3.23;;;5.40;30.90;;;;;;5035849;28;20450;-83
2023/03/05 07:33:53;;;;;;;12.10;3.50;;;5.40;1.00;;;;;;5035204;28;20983;-84
2023/03/05 07:36:19;;;;;;;9.20;4.07;;;5.20;1.00;;;;;;5036156;28;20955;-84
2023/03/05 07:38:46;;;;;;;10.87;3.50;;;5.20;4.20;;;;;;5035378;28;20462;-85
2023/03/05 07:41:18;;;;;;;12.07;5.37;;;5.10;99.90;;;;;;5036297;28;20454;-85
2023/03/05 07:43:45;;;;;;;4.83;2.97;;;5.10;99.90;;;;;;5036857;28;20475;-82
2023/03/05 07:46:14;;;;;;;6.90;3.30;;;5.10;99.90;;;;;;5020379;28;20463;-84
2023/03/05 07:48:42;;;;;;;5.60;3.77;;;4.90;1.00;;;;;;5032831;28;20496;-85
2023/03/05 07:51:13;;;;;;;6.13;4.40;;;4.90;99.90;;;;;;5036260;28;20540;-81
2023/03/05 07:53:40;;;;;;;5.70;3.23;;;4.90;1.00;;;;;;5036455;28;20500;-84
2023/03/05 07:56:08;;;;;;;6.60;4.50;;;4.90;1.00;;;;;;5036532;28;20987;-85
2023/03/05 07:58:35;;;;;;;8.37;4.17;;;5.00;1.00;;;;;;5036439;28;20487;-84
2023/03/05 08:01:03;;;;;;;7.50;4.13;;;4.90;1.00;;;;;;5036502;28;20992;-84
2023/03/05 08:03:29;;;;;;;9.30;3.97;;;5.10;1.00;;;;;;5038773;28;21008;-85
2023/03/05 08:05:57;;;;;;;11.87;4.63;;;5.20;1.00;;;;;;5049180;28;20514;-85
2023/03/05 08:08:24;;;;;;;15.07;5.03;;;5.20;1.00;;;;;;5043115;28;20955;-84
2023/03/05 08:10:51;;;;;;;8.63;4.33;;;5.50;99.90;;;;;;5044639;28;20458;-84
2023/03/05 08:13:18;;;;;;;7.70;3.80;;;5.90;99.90;;;;;;5042202;28;20498;-85
2023/03/05 08:15:45;;;;;;;6.90;3.17;;;6.20;99.90;;;;;;5042566;28;20462;-83
2023/03/05 08:18:12;;;;;;;8.50;3.70;;;6.30;99.90;;;;;;5040669;28;20542;-85
2023/03/05 08:20:39;;;;;;;7.80;2.70;;;6.30;1.00;;;;;;5020628;28;20462;-85
2023/03/05 08:23:07;;;;;;;28.90;13.20;;;6.20;99.90;;;;;;5039612;28;20545;-86
2023/03/05 08:25:34;;;;;;;34.43;15.80;;;5.90;99.90;;;;;;5037712;28;20542;-86
2023/03/05 08:28:01;;;;;;;24.27;9.20;;;5.80;99.90;;;;;;5037208;28;20515;-84
2023/03/05 08:30:28;;;;;;;8.73;4.90;;;5.70;99.90;;;;;;5019413;28;20575;-84
2023/03/05 08:32:56;;;;;;;6.40;4.00;;;5.50;99.90;;;;;;5026676;28;20879;-85
2023/03/05 08:35:23;;;;;;;12.07;4.07;;;5.50;1.00;;;;;;5020207;28;20489;-84
2023/03/05 08:37:50;;;;;;;4.43;3.33;;;5.60;48.80;;;;;;5016599;28;20460;-84
2023/03/05 08:40:19;;;;;;;3.90;3.03;;;5.60;1.00;;;;;;5027061;28;20487;-85
2023/03/05 08:42:46;;;;;;;6.87;4.70;;;5.80;47.10;;;;;;5038801;28;20471;-84
2023/03/05 08:45:13;;;;;;;6.97;3.90;;;5.70;99.90;;;;;;5036692;28;20459;-83
2023/03/05 08:47:40;;;;;;;8.67;4.93;;;5.80;1.00;;;;;;5035213;28;20805;-83
2023/03/05 08:50:07;;;;;;;5.73;3.90;;;5.80;99.90;;;;;;5035454;28;20510;-83
2023/03/05 08:52:34;;;;;;;8.23;4.20;;;5.90;1.00;;;;;;5035175;28;20543;-85
2023/03/05 08:55:01;;;;;;;7.03;4.20;;;5.80;94.90;;;;;;5037263;28;20543;-86
2023/03/05 08:57:29;;;;;;;10.90;4.47;;;5.80;99.90;;;;;;5038984;28;20463;-85
2023/03/05 08:59:56;;;;;;;6.40;4.20;;;6.00;1.00;;;;;;5037887;28;20464;-83
2023/03/05 09:02:23;;;;;;;10.37;5.37;;;6.00;1.00;;;;;;5037782;28;20928;-84
2023/03/05 09:04:50;;;;;;;7.47;4.17;;;6.00;99.90;;;;;;5038060;28;20943;-86
2023/03/05 09:07:17;;;;;;;6.07;4.50;;;5.80;1.00;;;;;;5039568;28;20498;-85
2023/03/05 09:09:43;;;;;;;9.80;5.53;;;5.80;99.90;;;;;;5037724;28;20450;-84
2023/03/05 09:12:12;;;;;;;13.17;6.20;;;5.80;1.00;;;;;;5036188;28;20472;-84
2023/03/05 09:14:40;;;;;;;7.60;6.23;;;5.60;99.90;;;;;;5034939;28;20497;-85
2023/03/05 09:17:08;;;;;;;10.10;7.80;;;5.60;27.90;;;;;;5036989;28;20426;-84
2023/03/05 09:19:35;;;;;;;15.33;8.00;;;5.70;99.90;;;;;;5035840;28;20457;-85
2023/03/05 09:22:02;;;;;;;13.17;7.57;;;5.90;1.00;;;;;;5036158;28;20504;-85
2023/03/05 09:24:29;;;;;;;9.87;7.87;;;5.80;99.90;;;;;;5037789;28;20431;-85
2023/03/05 09:26:58;;;;;;;11.30;8.00;;;5.80;1.00;;;;;;5036506;28;20546;-85
2023/03/05 09:29:26;;;;;;;10.50;8.10;;;5.80;99.90;;;;;;5038193;28;20456;-85
2023/03/05 09:31:54;;;;;;;10.53;8.00;;;5.70;99.90;;;;;;5037729;28;20451;-85
2023/03/05 09:34:21;;;;;;;10.33;9.03;;;5.60;99.90;;;;;;5037140;28;20500;-85
2023/03/05 09:36:48;;;;;;;15.13;11.07;;;5.50;99.90;;;;;;5037897;28;20498;-84
2023/03/05 09:39:15;;;;;;;11.90;8.80;;;5.30;25.10;;;;;;5038444;28;20459;-85
2023/03/05 09:42:17;;;;;;;14.27;11.07;;;5.30;1.00;;;;;;5038669;28;20566;-84
2023/03/05 09:44:51;;;;;;;11.07;9.70;;;5.50;99.90;;;;;;5038584;28;20435;-85
2023/03/05 09:47:35;;;;;;;16.33;10.30;;;5.50;99.90;;;;;;5036192;28;20457;-85
2023/03/05 09:50:10;;;;;;;13.10;10.30;;;5.60;99.90;;;;;;5034872;28;20463;-84
2023/03/05 09:52:42;;;;;;;14.57;9.63;;;5.70;99.90;;;;;;5047864;28;20470;-86
2023/03/05 09:55:14;;;;;;;13.73;9.60;;;6.00;99.90;;;;;;5046867;28;20477;-85
2023/03/05 09:57:45;;;;;;;10.77;8.60;;;6.20;1.00;;;;;;5044616;28;20481;-85
2023/03/05 10:00:30;;;;;;;12.40;9.17;;;6.30;1.00;;;;;;5043866;28;20491;-86
2023/03/05 10:03:02;;;;;;;17.37;10.37;;;6.40;1.00;;;;;;5044218;28;20568;-85
2023/03/05 10:05:45;;;;;;;11.00;9.47;;;6.50;1.00;;;;;;5043950;28;20447;-86
2023/03/05 10:08:16;;;;;;;12.67;9.87;;;6.40;1.00;;;;;;5036332;28;20975;-84
2023/03/05 10:10:48;;;;;;;17.87;9.10;;;6.40;1.00;;;;;;5036019;28;20451;-86
2023/03/05 10:13:22;;;;;;;11.73;9.80;;;6.20;99.90;;;;;;5035799;28;20909;-85
2023/03/05 10:15:58;;;;;;;13.33;8.73;;;6.10;99.90;;;;;;5035669;28;20821;-84
2023/03/05 10:18:35;;;;;;;14.77;9.20;;;6.00;1.00;;;;;;5037326;28;20432;-84
2023/03/05 10:21:04;;;;;;;17.00;9.47;;;6.00;99.90;;;;;;5037065;28;20775;-85
2023/03/05 10:23:53;;;;;;;11.70;8.00;;;6.10;99.90;;;;;;5034696;28;20542;-84
2023/03/05 10:26:39;;;;;;;12.43;7.73;;;6.30;99.90;;;;;;5037782;28;20495;-83
2023/03/05 10:29:23;;;;;;;10.77;6.40;;;6.30;98.40;;;;;;5038246;28;20462;-85
2023/03/05 10:31:59;;;;;;;9.80;7.10;;;6.30;1.10;;;;;;5038138;28;20505;-85
2023/03/05 10:35:03;;;;;;;11.93;6.20;;;6.40;53.90;;;;;;5038800;28;20494;-85
2023/03/05 10:37:49;;;;;;;8.40;5.50;;;6.70;1.00;;;;;;5031381;28;21217;-85
2023/03/05 10:40:25;;;;;;;9.87;6.27;;;6.90;99.90;;;;;;5019802;28;21014;-84
2023/03/05 10:42:59;;;;;;;5.83;4.83;;;6.90;1.00;;;;;;5018373;28;20540;-84
2023/03/05 10:45:32;;;;;;;6.77;4.60;;;6.90;1.00;;;;;;5017751;28;20999;-85
2023/03/05 10:48:06;;;;;;;6.00;5.27;;;7.20;1.00;;;;;;5017232;28;20484;-84
2023/03/05 10:50:39;;;;;;;7.67;5.60;;;7.40;99.90;;;;;;5024215;28;20456;-84
2023/03/05 10:53:16;;;;;;;9.40;4.87;;;7.50;99.90;;;;;;5032922;28;20480;-81
2023/03/05 10:55:44;;;;;;;7.53;5.00;;;7.40;99.90;;;;;;5027068;28;20448;-81
2023/03/05 10:58:12;;;;;;;11.57;5.70;;;7.40;99.90;;;;;;5024984;28;20476;-81
2023/03/05 11:00:40;;;;;;;10.37;5.50;;;7.30;99.90;;;;;;5024686;28;20452;-82
2023/03/05 11:03:08;;;;;;;10.13;5.67;;;7.20;99.90;;;;;;5034951;28;20483;-83
2023/03/05 11:05:42;;;;;;;7.47;5.60;;;7.10;99.90;;;;;;5036539;28;20456;-83
2023/03/05 11:08:32;;;;;;;7.17;4.20;;;7.30;99.90;;;;;;5037879;28;20489;-85
2023/03/05 11:11:15;;;;;;;6.70;4.90;;;7.30;99.90;;;;;;5023393;28;21132;-83
2023/03/05 11:14:02;;;;;;;10.40;4.10;;;7.20;99.90;;;;;;5033811;28;20514;-83
2023/03/05 11:16:31;;;;;;;8.60;5.50;;;7.60;99.90;;;;;;5023001;28;20484;-83
2023/03/05 11:19:20;;;;;;;7.30;5.60;;;7.60;99.90;;;;;;5030211;28;21026;-83
2023/03/05 11:22:06;;;;;;;6.07;5.00;;;7.90;99.90;;;;;;5020670;28;20524;-80
2023/03/05 11:24:33;;;;;;;6.70;5.07;;;8.10;28.00;;;;;;5027246;28;20448;-83
2023/03/05 11:27:00;;;;;;;6.53;5.40;;;8.40;1.00;;;;;;5028372;28;20863;-84
2023/03/05 11:29:29;;;;;;;9.07;6.40;;;8.40;1.00;;;;;;5035559;28;20466;-84
2023/03/05 11:32:14;;;;;;;5.70;4.67;;;8.40;1.00;;;;;;5037645;28;20472;-82
2023/03/05 11:34:41;;;;;;;9.47;5.20;;;8.40;1.00;;;;;;5039265;28;20491;-84
2023/03/05 11:37:22;;;;;;;10.33;6.90;;;8.30;1.00;;;;;;5042795;28;20532;-82
2023/03/05 11:40:04;;;;;;;7.53;5.80;;;8.20;1.00;;;;;;5029781;28;20429;-82
2023/03/05 11:42:31;;;;;;;10.73;9.63;;;8.40;1.00;;;;;;5026048;28;20477;-84
2023/03/05 11:44:59;;;;;;;10.40;7.60;;;8.50;1.00;;;;;;5042597;28;20828;-84
2023/03/05 11:47:33;;;;;;;9.83;5.80;;;8.60;1.00;;;;;;5045257;28;20453;-83
2023/03/05 11:50:05;;;;;;;6.80;5.60;;;8.60;1.00;;;;;;5046341;28;20447;-83
2023/03/05 11:52:44;;;;;;;7.87;4.60;;;8.70;1.00;;;;;;5052419;28;20481;-83
2023/03/05 11:55:15;;;;;;;5.63;5.03;;;8.80;1.00;;;;;;5052134;28;20499;-85
2023/03/05 11:57:52;;;;;;;6.17;5.57;;;8.60;1.00;;;;;;5048623;28;20452;-83
2023/03/05 12:00:26;;;;;;;5.73;4.83;;;8.80;1.00;;;;;;5041046;28;20453;-83
2023/03/05 12:02:56;;;;;;;5.60;4.90;;;9.30;1.00;;;;;;5040924;28;20485;-84
2023/03/05 12:05:23;;;;;;;6.83;4.80;;;9.70;1.00;;;;;;5020984;28;20455;-81
2023/03/05 12:07:55;;;;;;;6.43;3.97;;;10.50;1.00;;;;;;5018682;28;20454;-83
2023/03/05 12:10:24;;;;;;;6.93;3.90;;;11.10;1.00;;;;;;5021267;28;20448;-83
2023/03/05 12:12:59;;;;;;;3.80;3.03;;;11.30;1.00;;;;;;5037211;28;20472;-84
2023/03/05 12:15:35;;;;;;;4.53;2.70;;;12.00;1.00;;;;;;5037090;28;20483;-84
2023/03/05 12:18:15;;;;;;;4.13;2.50;;;12.30;1.00;;;;;;5035516;28;20857;-84
2023/03/05 12:20:49;;;;;;;3.43;1.90;;;11.60;99.90;;;;;;5030243;28;20521;-83
2023/03/05 12:23:20;;;;;;;4.80;2.00;;;10.90;99.90;;;;;;5035653;28;20575;-83
2023/03/05 12:25:49;;;;;;;3.73;1.50;;;10.70;99.90;;;;;;5036820;28;20512;-83
2023/03/05 12:28:17;;;;;;;2.53;1.70;;;10.20;99.90;;;;;;5032784;28;20473;-84
2023/03/05 12:30:56;;;;;;;3.10;2.40;;;9.60;99.90;;;;;;5030456;28;20466;-82
2023/03/05 12:33:36;;;;;;;3.97;2.40;;;9.80;99.90;;;;;;5023314;28;20905;-84
2023/03/05 12:36:33;;;;;;;3.80;2.57;;;10.10;99.90;;;;;;5024861;28;20487;-84
2023/03/05 12:39:22;;;;;;;3.97;2.20;;;11.20;99.90;;;;;;5035155;28;20884;-84
2023/03/05 12:41:50;;;;;;;2.60;1.80;;;12.40;99.90;;;;;;5038814;28;20534;-83
2023/03/05 12:44:22;;;;;;;3.90;2.17;;;13.30;99.90;;;;;;5033569;28;20972;-85
2023/03/05 12:47:22;;;;;;;3.77;1.90;;;14.10;99.90;;;;;;5018643;28;20457;-86
2023/03/05 12:49:49;;;;;;;3.70;2.07;;;14.70;99.90;;;;;;5022074;28;20457;-84
2023/03/05 12:52:29;;;;;;;3.13;2.33;;;15.10;99.90;;;;;;5038498;28;20468;-84
2023/03/05 12:55:22;;;;;;;3.73;2.63;;;15.00;99.90;;;;;;5025820;28;20870;-84
2023/03/05 12:57:56;;;;;;;7.83;4.20;;;14.20;99.90;;;;;;5039394;28;20467;-83
2023/03/05 13:00:32;;;;;;;5.70;3.97;;;14.10;99.90;;;;;;5037279;28;20447;-85
2023/03/05 13:03:04;;;;;;;4.53;4.00;;;14.10;99.90;;;;;;5039066;28;20481;-83
2023/03/05 13:05:33;;;;;;;5.23;3.47;;;13.50;99.90;;;;;;5020054;28;20452;-82
2023/03/05 13:08:11;;;;;;;4.70;3.97;;;12.40;99.90;;;;;;5022380;28;20461;-84
2023/03/05 13:10:41;;;;;;;4.53;3.50;;;12.10;99.90;;;;;;5036313;28;20528;-83
2023/03/05 13:13:15;;;;;;;5.00;3.00;;;11.90;99.90;;;;;;5017573;28;20481;-84